createdAt,value
2019-01-31T00:00:28.722Z,32.70
2019-01-31T00:02:54.674Z,32.70
2019-01-31T00:05:20.617Z,32.70
2019-01-31T00:07:46.694Z,32.70
2019-01-31T00:10:12.753Z,32.70
2019-01-31T00:12:38.692Z,32.60
2019-01-31T00:15:04.641Z,32.60
2019-01-31T00:17:30.601Z,32.70
2019-01-31T00:19:56.674Z,32.60
2019-01-31T00:22:22.615Z,32.80
2019-01-31T00:24:48.563Z,32.80
2019-01-31T00:27:14.543Z,32.80
2019-01-31T00:29:40.579Z,32.80
2019-01-31T00:32:06.537Z,32.80
2019-01-31T00:34:32.483Z,32.90
2019-01-31T00:36:58.438Z,32.80
2019-01-31T00:39:24.383Z,32.80
2019-01-31T00:41:50.344Z,32.90
2019-01-31T00:44:16.351Z,32.90
2019-01-31T00:46:42.341Z,32.90
2019-01-31T00:49:08.289Z,32.90
2019-01-31T00:51:34.443Z,32.90
2019-01-31T00:54:00.397Z,32.90
2019-01-31T00:56:26.351Z,33.00
2019-01-31T00:58:52.285Z,33.00
2019-01-31T01:01:18.259Z,32.90
2019-01-31T01:03:44.197Z,32.80
2019-01-31T01:06:10.240Z,32.80
2019-01-31T01:08:36.170Z,32.80
2019-01-31T01:11:02.112Z,32.70
2019-01-31T01:13:28.066Z,32.70
2019-01-31T01:15:54.045Z,32.70
2019-01-31T01:18:20.005Z,32.60
2019-01-31T01:20:45.942Z,32.50
2019-01-31T01:23:11.933Z,32.50
2019-01-31T01:25:37.867Z,32.60
2019-01-31T01:28:03.846Z,32.60
2019-01-31T01:30:29.890Z,32.50
2019-01-31T01:32:55.991Z,32.50
2019-01-31T01:35:22.012Z,32.60
2019-01-31T01:37:47.950Z,32.50
2019-01-31T01:40:13.909Z,32.50
2019-01-31T01:42:39.874Z,32.50
2019-01-31T01:45:06.102Z,32.40
2019-01-31T01:47:32.034Z,32.50
2019-01-31T01:49:58.040Z,32.60
2019-01-31T01:52:23.976Z,32.50
2019-01-31T01:54:49.934Z,32.60
2019-01-31T01:57:15.898Z,32.70
2019-01-31T01:59:41.844Z,32.80
2019-01-31T02:02:07.804Z,32.70
2019-01-31T02:04:33.740Z,32.70
2019-01-31T02:06:59.710Z,32.70
2019-01-31T02:09:30.258Z,32.60
2019-01-31T02:11:53.622Z,32.70
2019-01-31T02:14:20.072Z,32.60
2019-01-31T02:16:46.025Z,32.60
2019-01-31T02:19:11.985Z,32.50
2019-01-31T02:21:37.946Z,32.50
2019-01-31T02:24:03.890Z,32.50
2019-01-31T02:26:29.833Z,32.50
2019-01-31T02:28:55.760Z,32.60
2019-01-31T02:31:21.710Z,32.50
2019-01-31T02:33:47.664Z,32.70
2019-01-31T02:36:13.630Z,32.60
2019-01-31T02:38:39.597Z,32.10
2019-01-31T02:41:05.565Z,32.70
2019-01-31T02:43:31.588Z,32.70
2019-01-31T02:45:57.548Z,32.70
2019-01-31T02:48:23.488Z,32.70
2019-01-31T02:50:49.424Z,32.80
2019-01-31T02:53:15.362Z,32.80
2019-01-31T02:55:41.282Z,32.80
2019-01-31T02:58:07.265Z,32.80
2019-01-31T03:00:33.226Z,32.80
2019-01-31T03:02:59.190Z,32.80
2019-01-31T03:05:25.252Z,32.80
2019-01-31T03:07:51.240Z,32.80
2019-01-31T03:10:17.294Z,32.90
2019-01-31T03:12:43.282Z,33.00
2019-01-31T03:15:09.578Z,32.90
2019-01-31T03:17:35.524Z,32.90
2019-01-31T03:20:01.487Z,32.80
2019-01-31T03:22:27.456Z,32.80
2019-01-31T03:24:53.436Z,32.80
2019-01-31T03:27:19.383Z,32.70
2019-01-31T03:29:45.433Z,32.70
2019-01-31T03:32:11.422Z,33.00
2019-01-31T03:34:37.470Z,32.50
2019-01-31T03:37:03.419Z,32.50
2019-01-31T03:39:29.385Z,32.40
2019-01-31T03:41:55.429Z,32.40
2019-01-31T03:44:21.373Z,32.40
2019-01-31T03:46:47.315Z,32.30
2019-01-31T03:49:13.278Z,32.30
2019-01-31T03:51:39.262Z,32.30
2019-01-31T03:54:05.220Z,32.30
2019-01-31T03:56:31.306Z,32.30
2019-01-31T03:58:57.350Z,32.20
2019-01-31T04:01:23.335Z,32.30
2019-01-31T04:03:49.366Z,32.20
2019-01-31T04:06:15.413Z,32.10
2019-01-31T04:08:41.356Z,32.20
2019-01-31T04:11:07.285Z,32.20
2019-01-31T04:13:33.238Z,32.20
2019-01-31T04:15:59.201Z,32.10
2019-01-31T04:18:25.243Z,32.20
2019-01-31T04:20:51.327Z,32.30
2019-01-31T04:23:17.372Z,32.30
2019-01-31T04:25:43.407Z,32.00
2019-01-31T04:28:09.378Z,32.00
2019-01-31T04:30:35.327Z,32.00
2019-01-31T04:33:01.267Z,32.00
2019-01-31T04:35:27.201Z,32.00
2019-01-31T04:37:53.153Z,32.70
2019-01-31T04:40:30.388Z,32.00
2019-01-31T04:42:46.959Z,32.10
2019-01-31T04:45:13.067Z,32.00
2019-01-31T04:47:39.024Z,32.10
2019-01-31T04:50:04.983Z,32.20
2019-01-31T04:52:30.946Z,32.10
2019-01-31T04:54:56.980Z,32.20
2019-01-31T04:57:22.914Z,32.10
2019-01-31T04:59:48.972Z,32.20
2019-01-31T05:02:14.942Z,32.20
2019-01-31T05:04:40.894Z,32.20
2019-01-31T05:07:06.830Z,32.20
2019-01-31T05:09:32.824Z,32.20
2019-01-31T05:11:58.851Z,32.80
2019-01-31T05:14:24.801Z,32.20
2019-01-31T05:16:50.832Z,32.20
2019-01-31T05:19:16.760Z,32.20
2019-01-31T05:21:42.708Z,32.20
2019-01-31T05:24:08.668Z,32.30
2019-01-31T05:26:34.605Z,32.20
2019-01-31T05:29:00.564Z,32.20
2019-01-31T05:31:26.506Z,32.30
2019-01-31T05:33:52.456Z,32.20
2019-01-31T05:36:18.420Z,32.30
2019-01-31T05:38:44.391Z,32.30
2019-01-31T05:41:10.332Z,32.20
2019-01-31T05:43:36.280Z,32.30
2019-01-31T05:46:02.240Z,32.20
2019-01-31T05:48:28.201Z,32.90
2019-01-31T05:50:54.138Z,32.30
2019-01-31T05:53:20.137Z,32.40
2019-01-31T05:55:46.174Z,32.50
2019-01-31T05:58:12.109Z,32.50
2019-01-31T06:00:38.582Z,33.40
2019-01-31T06:03:04.522Z,32.80
2019-01-31T06:05:30.503Z,32.80
2019-01-31T06:07:56.442Z,32.80
2019-01-31T06:10:22.410Z,32.70
2019-01-31T06:12:48.406Z,32.50
2019-01-31T06:15:14.457Z,32.80
2019-01-31T06:17:40.396Z,32.90
2019-01-31T06:20:06.364Z,32.90
2019-01-31T06:22:32.320Z,33.00
2019-01-31T06:24:58.813Z,33.00
2019-01-31T06:27:24.753Z,33.00
2019-01-31T06:29:50.701Z,33.70
2019-01-31T06:32:16.665Z,32.90
2019-01-31T06:34:43.066Z,32.90
2019-01-31T06:37:09.104Z,33.00
2019-01-31T06:39:35.055Z,33.60
2019-01-31T06:42:01.022Z,33.20
2019-01-31T06:44:27.089Z,33.20
2019-01-31T06:46:53.092Z,33.40
2019-01-31T06:49:19.069Z,33.30
2019-01-31T06:51:45.021Z,33.30
2019-01-31T06:54:11.334Z,33.20
2019-01-31T06:56:37.270Z,33.10
2019-01-31T06:59:03.230Z,33.00
2019-01-31T07:01:29.175Z,33.60
2019-01-31T07:03:55.107Z,32.90
2019-01-31T07:06:21.052Z,33.00
2019-01-31T07:08:47.020Z,33.00
2019-01-31T07:11:13.069Z,32.90
2019-01-31T07:13:39.017Z,32.90
2019-01-31T07:16:04.965Z,33.10
2019-01-31T07:18:30.955Z,33.00
2019-01-31T07:20:56.920Z,33.00
2019-01-31T07:23:22.937Z,33.00
2019-01-31T07:25:48.895Z,33.00
2019-01-31T07:28:14.856Z,32.90
2019-01-31T07:30:40.949Z,33.10
2019-01-31T07:33:06.966Z,33.00
2019-01-31T07:35:32.919Z,33.10
2019-01-31T07:37:58.987Z,33.00
2019-01-31T07:40:24.923Z,32.80
2019-01-31T07:42:50.880Z,32.70
2019-01-31T07:45:16.831Z,32.70
2019-01-31T07:47:42.761Z,32.60
2019-01-31T07:50:08.715Z,32.50
2019-01-31T07:52:34.669Z,32.50
2019-01-31T07:55:02.000Z,32.30
2019-01-31T07:57:28.315Z,31.30
2019-01-31T07:59:54.266Z,32.30
2019-01-31T08:02:20.272Z,32.30
2019-01-31T08:04:46.239Z,32.40
2019-01-31T08:07:12.199Z,32.30
2019-01-31T08:09:38.138Z,32.30
2019-01-31T08:12:04.126Z,32.30
2019-01-31T08:14:30.077Z,32.30
2019-01-31T08:16:56.039Z,32.20
2019-01-31T08:19:21.983Z,32.20
2019-01-31T08:21:47.915Z,32.30
2019-01-31T08:24:14.130Z,32.10
2019-01-31T08:26:40.195Z,32.10
2019-01-31T08:29:06.156Z,32.80
2019-01-31T08:31:32.083Z,32.20
2019-01-31T08:33:58.027Z,32.30
2019-01-31T08:36:23.991Z,32.00
2019-01-31T08:38:49.983Z,32.00
2019-01-31T08:41:16.023Z,32.00
2019-01-31T08:43:42.127Z,32.40
2019-01-31T08:46:08.153Z,31.80
2019-01-31T08:48:34.127Z,31.70
2019-01-31T08:51:00.143Z,31.80
2019-01-31T08:53:26.077Z,31.90
2019-01-31T08:55:52.029Z,31.90
2019-01-31T08:58:18.074Z,32.00
2019-01-31T09:00:44.027Z,32.00
2019-01-31T09:03:09.969Z,31.90
2019-01-31T09:05:35.922Z,32.00
2019-01-31T09:08:01.907Z,31.90
2019-01-31T09:10:27.998Z,31.90
2019-01-31T09:12:54.071Z,31.90
2019-01-31T09:15:20.028Z,31.90
2019-01-31T09:17:46.065Z,31.80
2019-01-31T09:20:12.023Z,31.90
2019-01-31T09:22:38.173Z,31.90
2019-01-31T09:25:04.403Z,31.90
2019-01-31T09:27:30.375Z,32.10
2019-01-31T09:29:56.413Z,31.70
2019-01-31T09:32:42.234Z,31.80
2019-01-31T09:35:08.192Z,32.00
2019-01-31T09:37:34.145Z,31.80
2019-01-31T09:40:00.141Z,31.80
2019-01-31T09:42:26.983Z,31.90
2019-01-31T09:44:53.078Z,31.90
2019-01-31T09:47:19.046Z,32.00
2019-01-31T09:49:45.009Z,32.10
2019-01-31T09:52:11.083Z,32.00
2019-01-31T09:54:37.521Z,32.10
2019-01-31T09:57:03.679Z,32.30
2019-01-31T09:59:29.621Z,32.10
2019-01-31T10:01:55.581Z,31.90
2019-01-31T10:04:21.919Z,31.80
2019-01-31T10:06:47.868Z,31.80
2019-01-31T10:09:15.950Z,31.70
2019-01-31T10:11:41.708Z,31.70
2019-01-31T10:14:08.628Z,31.70
2019-01-31T10:16:34.608Z,31.70
2019-01-31T10:19:00.721Z,31.70
2019-01-31T10:21:26.832Z,31.70
2019-01-31T10:23:52.848Z,31.70
2019-01-31T10:26:18.917Z,31.70
2019-01-31T10:28:44.947Z,31.70
2019-01-31T10:31:10.998Z,31.70
2019-01-31T10:33:36.988Z,31.70
2019-01-31T10:36:05.684Z,31.60
2019-01-31T10:38:30.911Z,31.70
2019-01-31T10:40:56.890Z,31.70
2019-01-31T10:43:22.922Z,31.80
2019-01-31T10:45:48.892Z,31.80
2019-01-31T10:48:14.842Z,31.80
2019-01-31T10:50:40.810Z,31.70
2019-01-31T10:53:06.774Z,31.60
2019-01-31T10:55:32.713Z,31.50
2019-01-31T10:57:58.677Z,31.50
2019-01-31T11:00:25.039Z,31.50
2019-01-31T11:02:51.086Z,31.60
2019-01-31T11:05:17.166Z,31.60
2019-01-31T11:07:43.136Z,31.50
2019-01-31T11:10:09.084Z,31.60
2019-01-31T11:12:35.023Z,31.50
2019-01-31T11:15:00.990Z,31.60
2019-01-31T11:17:27.047Z,31.50
2019-01-31T11:19:53.027Z,31.70
2019-01-31T11:22:19.014Z,31.50
2019-01-31T11:24:44.992Z,31.50
2019-01-31T11:27:11.047Z,31.50
2019-01-31T11:29:37.032Z,31.50
2019-01-31T11:32:03.077Z,31.50
2019-01-31T11:34:33.085Z,31.50
2019-01-31T11:36:57.669Z,31.40
2019-01-31T11:39:24.133Z,31.30
2019-01-31T11:41:50.183Z,31.30
2019-01-31T11:44:16.391Z,31.40
2019-01-31T11:46:42.351Z,31.30
2019-01-31T11:49:08.290Z,31.30
2019-01-31T11:51:34.261Z,31.30
2019-01-31T11:54:00.303Z,31.30
2019-01-31T11:56:26.267Z,31.20
2019-01-31T11:58:52.198Z,31.20
2019-01-31T12:01:19.333Z,31.20
2019-01-31T12:03:45.392Z,31.10
2019-01-31T12:06:11.354Z,31.10
2019-01-31T12:08:37.289Z,31.00
2019-01-31T12:11:03.251Z,31.30
2019-01-31T12:13:29.219Z,31.00
2019-01-31T12:15:55.242Z,31.60
2019-01-31T12:18:21.197Z,31.00
2019-01-31T12:20:47.148Z,30.90
2019-01-31T12:23:13.099Z,31.00
2019-01-31T12:25:39.032Z,30.80
2019-01-31T12:28:04.990Z,31.10
2019-01-31T12:30:30.928Z,31.30
2019-01-31T12:32:56.915Z,31.40
2019-01-31T12:35:24.756Z,31.40
2019-01-31T12:37:51.012Z,31.50
2019-01-31T12:40:16.984Z,31.40
2019-01-31T12:42:43.031Z,31.40
2019-01-31T12:45:08.991Z,31.20
2019-01-31T12:47:34.967Z,31.10
2019-01-31T12:50:00.961Z,31.00
2019-01-31T12:52:26.979Z,31.00
2019-01-31T12:54:52.942Z,31.00
2019-01-31T12:57:18.901Z,31.10
2019-01-31T12:59:44.899Z,31.00
2019-01-31T13:02:10.951Z,30.90
2019-01-31T13:04:36.890Z,30.90
2019-01-31T13:07:03.170Z,31.10
2019-01-31T13:09:29.212Z,31.10
2019-01-31T13:11:55.165Z,31.00
2019-01-31T13:14:21.105Z,31.00
2019-01-31T13:16:47.078Z,30.80
2019-01-31T13:19:13.123Z,30.80
2019-01-31T13:21:39.056Z,30.80
2019-01-31T13:24:04.995Z,30.50
2019-01-31T13:26:30.940Z,30.50
2019-01-31T13:28:56.908Z,30.40
2019-01-31T13:31:22.853Z,30.50
2019-01-31T13:33:48.895Z,30.50
2019-01-31T13:36:14.874Z,30.30
2019-01-31T13:38:40.834Z,30.20
2019-01-31T13:41:06.795Z,30.30
2019-01-31T13:43:32.770Z,30.30
2019-01-31T13:45:58.713Z,30.30
2019-01-31T13:48:24.654Z,30.40
2019-01-31T13:50:50.606Z,30.40
2019-01-31T13:53:16.608Z,30.40
2019-01-31T13:55:42.636Z,30.50
2019-01-31T13:58:10.225Z,30.40
2019-01-31T14:00:36.520Z,30.50
2019-01-31T14:03:02.474Z,30.50
2019-01-31T14:05:30.061Z,30.50
2019-01-31T14:07:56.301Z,30.40
2019-01-31T14:10:22.356Z,30.40
2019-01-31T14:12:48.322Z,30.40
2019-01-31T14:15:14.279Z,30.40
2019-01-31T14:17:40.288Z,30.30
2019-01-31T14:20:06.342Z,30.20
2019-01-31T14:22:42.569Z,30.20
2019-01-31T14:25:00.342Z,30.80
2019-01-31T14:27:26.368Z,30.20
2019-01-31T14:29:52.405Z,30.10
2019-01-31T14:32:20.093Z,30.10
2019-01-31T14:34:46.028Z,30.20
2019-01-31T14:37:12.070Z,30.10
2019-01-31T14:39:38.030Z,30.10
2019-01-31T14:42:03.984Z,30.10
2019-01-31T14:44:29.936Z,30.10
2019-01-31T14:46:55.880Z,30.10
2019-01-31T14:49:21.864Z,30.10
2019-01-31T14:51:47.888Z,30.00
2019-01-31T14:54:14.277Z,30.10
2019-01-31T14:56:40.228Z,30.00
2019-01-31T14:59:06.206Z,30.00
2019-01-31T15:01:32.168Z,30.00
2019-01-31T15:03:58.117Z,30.00
2019-01-31T15:06:24.071Z,30.00
2019-01-31T15:08:50.028Z,29.90
2019-01-31T15:11:15.980Z,29.90
2019-01-31T15:13:41.942Z,30.00
2019-01-31T15:16:07.941Z,30.00
2019-01-31T15:18:33.902Z,30.00
2019-01-31T15:20:59.861Z,30.00
2019-01-31T15:23:25.792Z,30.40
2019-01-31T15:25:51.762Z,29.80
2019-01-31T15:28:17.706Z,29.90
2019-01-31T15:30:43.863Z,29.60
2019-01-31T15:33:10.245Z,29.30
2019-01-31T15:35:36.218Z,29.20
2019-01-31T15:38:02.257Z,29.10
2019-01-31T15:40:28.374Z,28.90
2019-01-31T15:42:54.483Z,28.70
2019-01-31T15:45:20.530Z,28.70
2019-01-31T15:47:46.480Z,28.40
2019-01-31T15:50:12.535Z,28.40
2019-01-31T15:52:38.578Z,28.40
2019-01-31T15:55:05.259Z,28.40
2019-01-31T15:57:31.204Z,28.70
2019-01-31T15:59:57.178Z,29.10
2019-01-31T16:02:23.214Z,29.20
2019-01-31T16:04:49.174Z,29.40
2019-01-31T16:07:15.153Z,29.50
2019-01-31T16:09:41.090Z,29.70
2019-01-31T16:12:07.085Z,29.70
2019-01-31T16:14:33.022Z,29.90
2019-01-31T16:16:58.960Z,30.00
2019-01-31T16:19:24.929Z,29.90
2019-01-31T16:21:50.912Z,29.90
2019-01-31T16:24:16.855Z,30.00
2019-01-31T16:26:42.819Z,30.10
2019-01-31T16:29:08.879Z,30.10
2019-01-31T16:31:34.938Z,30.20
2019-01-31T16:34:01.009Z,30.10
2019-01-31T16:36:27.090Z,30.20
2019-01-31T16:38:53.156Z,30.40
2019-01-31T16:41:19.248Z,30.40
2019-01-31T16:43:45.212Z,30.40
2019-01-31T16:46:11.182Z,30.30
2019-01-31T16:48:37.283Z,30.30
2019-01-31T16:51:03.227Z,30.30
2019-01-31T16:53:29.292Z,30.40
2019-01-31T16:55:55.500Z,30.40
2019-01-31T16:58:21.454Z,30.40
2019-01-31T17:00:47.591Z,30.40
2019-01-31T17:03:13.679Z,30.40
2019-01-31T17:05:39.844Z,30.40
2019-01-31T17:08:05.855Z,30.70
2019-01-31T17:10:31.894Z,30.40
2019-01-31T17:12:57.941Z,30.40
2019-01-31T17:15:23.911Z,30.40
2019-01-31T17:17:49.860Z,30.30
2019-01-31T17:20:15.837Z,30.30
2019-01-31T17:22:41.913Z,30.20
2019-01-31T17:25:07.861Z,30.10
2019-01-31T17:27:33.864Z,30.20
2019-01-31T17:29:59.824Z,30.10
2019-01-31T17:32:25.811Z,30.00
2019-01-31T17:34:51.754Z,30.00
2019-01-31T17:37:17.722Z,30.00
2019-01-31T17:39:43.662Z,29.90
2019-01-31T17:42:09.649Z,29.90
2019-01-31T17:44:35.802Z,30.00
2019-01-31T17:47:01.769Z,30.00
2019-01-31T17:49:27.761Z,30.00
2019-01-31T17:51:53.831Z,29.90
2019-01-31T17:54:19.792Z,29.90
2019-01-31T17:56:45.844Z,30.00
2019-01-31T17:59:11.820Z,30.00
2019-01-31T18:01:37.766Z,30.00
2019-01-31T18:04:03.700Z,29.90
2019-01-31T18:06:29.651Z,29.90
2019-01-31T18:08:55.631Z,29.90
2019-01-31T18:11:21.703Z,29.90
2019-01-31T18:13:47.671Z,29.80
2019-01-31T18:16:13.609Z,29.80
2019-01-31T18:18:39.554Z,29.80
2019-01-31T18:21:05.489Z,29.80
2019-01-31T18:23:31.448Z,29.70
2019-01-31T18:25:57.397Z,29.80
2019-01-31T18:28:23.410Z,29.90
2019-01-31T18:30:49.463Z,29.90
2019-01-31T18:33:15.425Z,30.00
2019-01-31T18:35:41.417Z,30.00
2019-01-31T18:38:07.383Z,30.10
2019-01-31T18:40:33.471Z,30.10
2019-01-31T18:42:59.443Z,30.00
2019-01-31T18:45:25.510Z,30.00
2019-01-31T18:47:51.568Z,30.00
2019-01-31T18:50:17.612Z,30.00
2019-01-31T18:52:43.570Z,30.00
2019-01-31T18:55:09.543Z,30.00
2019-01-31T18:57:35.609Z,30.10
2019-01-31T19:00:01.573Z,30.40
2019-01-31T19:02:27.653Z,30.30
2019-01-31T19:04:53.617Z,30.00
2019-01-31T19:07:19.620Z,30.00
2019-01-31T19:09:45.654Z,29.90
2019-01-31T19:12:11.589Z,30.30
2019-01-31T19:14:37.983Z,29.70
2019-01-31T19:17:03.905Z,29.60
2019-01-31T19:19:29.880Z,29.40
2019-01-31T19:21:55.852Z,29.10
2019-01-31T19:24:21.791Z,28.90
2019-01-31T19:26:47.754Z,28.80
2019-01-31T19:29:14.011Z,28.60
2019-01-31T19:31:40.486Z,28.10
2019-01-31T19:34:07.350Z,27.90
2019-01-31T19:36:33.284Z,27.90
2019-01-31T19:38:59.230Z,27.90
2019-01-31T19:41:25.176Z,28.00
2019-01-31T19:43:51.149Z,28.00
2019-01-31T19:46:17.197Z,28.00
2019-01-31T19:48:43.186Z,28.10
2019-01-31T19:51:09.162Z,28.10
2019-01-31T19:53:35.211Z,28.20
2019-01-31T19:56:01.283Z,28.20
2019-01-31T19:58:27.236Z,28.30
2019-01-31T20:00:58.976Z,28.40
2019-01-31T20:03:24.933Z,28.40
2019-01-31T20:05:50.893Z,28.60
2019-01-31T20:08:16.863Z,28.70
2019-01-31T20:10:42.805Z,28.70
2019-01-31T20:13:08.962Z,28.80
2019-01-31T20:15:34.917Z,28.70
2019-01-31T20:18:00.902Z,28.80
2019-01-31T20:20:26.966Z,28.80
2019-01-31T20:22:53.026Z,28.80
2019-01-31T20:25:19.053Z,28.90
2019-01-31T20:27:45.926Z,28.80
2019-01-31T20:30:11.917Z,28.80
2019-01-31T20:32:37.972Z,28.80
2019-01-31T20:35:04.143Z,28.80
2019-01-31T20:37:30.106Z,28.90
2019-01-31T20:39:56.155Z,28.90
2019-01-31T20:42:22.115Z,28.90
2019-01-31T20:44:48.059Z,29.00
2019-01-31T20:47:15.882Z,29.00
2019-01-31T20:49:41.889Z,28.70
2019-01-31T20:52:07.848Z,29.10
2019-01-31T20:54:33.828Z,29.00
2019-01-31T20:56:59.878Z,29.00
2019-01-31T20:59:25.836Z,29.00
2019-01-31T21:01:51.797Z,28.90
2019-01-31T21:04:17.848Z,29.00
2019-01-31T21:06:43.801Z,28.90
2019-01-31T21:09:09.870Z,29.00
2019-01-31T21:11:35.958Z,29.10
2019-01-31T21:14:01.898Z,29.20
2019-01-31T21:16:27.987Z,29.20
2019-01-31T21:18:53.953Z,29.30
2019-01-31T21:21:19.925Z,29.30
2019-01-31T21:23:45.964Z,29.40
2019-01-31T21:26:13.691Z,29.50
2019-01-31T21:28:39.779Z,29.70
2019-01-31T21:31:05.930Z,29.70
2019-01-31T21:33:31.981Z,29.70
2019-01-31T21:35:57.931Z,29.70
2019-01-31T21:38:23.883Z,29.70
2019-01-31T21:40:49.930Z,29.70
2019-01-31T21:43:15.882Z,29.70
2019-01-31T21:45:41.826Z,29.70
2019-01-31T21:48:07.787Z,29.70
2019-01-31T21:50:33.759Z,29.80
2019-01-31T21:52:59.784Z,30.00
2019-01-31T21:55:25.767Z,30.00
2019-01-31T21:57:51.717Z,30.00
2019-01-31T22:00:17.707Z,30.00
2019-01-31T22:02:43.747Z,29.90
2019-01-31T22:05:09.711Z,29.90
2019-01-31T22:07:35.681Z,29.80
2019-01-31T22:10:01.638Z,29.80
2019-01-31T22:12:27.689Z,29.70
2019-01-31T22:14:53.641Z,29.60
2019-01-31T22:17:19.598Z,29.50
2019-01-31T22:19:45.545Z,29.60
2019-01-31T22:22:11.493Z,29.70
2019-01-31T22:24:37.435Z,29.70
2019-01-31T22:27:03.593Z,30.30
2019-01-31T22:29:29.527Z,29.80
2019-01-31T22:31:55.488Z,29.80
2019-01-31T22:34:21.432Z,29.80
2019-01-31T22:36:47.421Z,29.90
2019-01-31T22:39:13.396Z,29.90
2019-01-31T22:41:39.535Z,29.90
2019-01-31T22:44:05.742Z,30.00
2019-01-31T22:46:31.692Z,29.90
2019-01-31T22:48:57.629Z,30.00
2019-01-31T22:51:23.584Z,30.00
2019-01-31T22:53:49.535Z,30.10
2019-01-31T22:56:15.490Z,30.10
2019-01-31T22:58:41.425Z,30.10
2019-01-31T23:01:15.132Z,30.10
2019-01-31T23:03:41.084Z,30.60
2019-01-31T23:06:07.022Z,30.00
2019-01-31T23:08:32.975Z,29.90
2019-01-31T23:10:58.912Z,30.30
2019-01-31T23:13:24.880Z,30.30
2019-01-31T23:15:50.830Z,30.20
2019-01-31T23:18:16.768Z,30.20
2019-01-31T23:20:44.467Z,30.40
2019-01-31T23:23:10.632Z,30.40
2019-01-31T23:25:40.322Z,30.40
2019-01-31T23:28:04.565Z,30.30
2019-01-31T23:30:30.525Z,30.40
2019-01-31T23:32:56.470Z,30.50
2019-01-31T23:35:22.440Z,30.40
2019-01-31T23:37:48.451Z,30.40
2019-01-31T23:40:14.464Z,30.50
2019-01-31T23:42:40.411Z,30.50
2019-01-31T23:45:06.379Z,30.40
2019-01-31T23:47:32.419Z,30.50
2019-01-31T23:49:58.343Z,30.50
2019-01-31T23:52:24.290Z,30.50
2019-01-31T23:54:50.225Z,30.50
2019-01-31T23:57:16.205Z,30.50
2019-01-31T23:59:42.141Z,30.50
